createdAt,value
2023-08-12T00:01:05.105Z,18.30
2023-08-12T00:04:48.176Z,18.30
2023-08-12T00:08:30.269Z,18.30
2023-08-12T00:12:12.099Z,18.30
2023-08-12T00:15:53.971Z,18.30
2023-08-12T00:19:35.803Z,18.30
2023-08-12T00:23:17.613Z,18.20
2023-08-12T00:27:00.059Z,18.20
2023-08-12T00:30:41.920Z,18.20
2023-08-12T00:34:23.741Z,18.20
2023-08-12T00:38:05.559Z,18.10
2023-08-12T00:41:48.422Z,18.10
2023-08-12T00:45:30.638Z,18.10
2023-08-12T00:49:13.341Z,18.10
2023-08-12T00:52:55.178Z,18.10
2023-08-12T00:56:37.561Z,18.10
2023-08-12T01:00:22.104Z,18.10
2023-08-12T01:04:04.122Z,18.10
2023-08-12T01:07:47.419Z,18.10
2023-08-12T01:12:07.638Z,18.10
2023-08-12T01:15:53.018Z,18.10
2023-08-12T01:19:38.777Z,18.10
2023-08-12T01:23:21.593Z,18.10
2023-08-12T01:27:03.612Z,18.10
2023-08-12T01:31:00.654Z,18.10
2023-08-12T01:34:50.074Z,18.00
2023-08-12T01:38:33.915Z,18.00
2023-08-12T01:42:17.987Z,18.00
2023-08-12T01:45:59.960Z,17.90
2023-08-12T01:49:41.848Z,17.90
2023-08-12T01:53:23.614Z,17.90
2023-08-12T01:57:06.751Z,17.90
2023-08-12T02:00:48.739Z,17.90
2023-08-12T02:04:31.161Z,17.90
2023-08-12T02:08:14.113Z,17.90
2023-08-12T02:11:56.001Z,17.90
2023-08-12T02:15:37.854Z,17.90
2023-08-12T02:19:19.656Z,17.90
2023-08-12T02:23:01.499Z,17.90
2023-08-12T02:26:43.339Z,17.90
2023-08-12T02:30:25.194Z,17.90
2023-08-12T02:34:07.064Z,17.90
2023-08-12T02:37:52.098Z,17.80
2023-08-12T02:41:33.940Z,17.80
2023-08-12T02:45:15.818Z,17.90
2023-08-12T02:48:57.592Z,17.80
2023-08-12T02:52:39.444Z,17.80
2023-08-12T02:56:21.315Z,17.80
2023-08-12T03:00:05.108Z,17.70
2023-08-12T03:03:46.888Z,17.70
2023-08-12T03:07:29.005Z,17.60
2023-08-12T03:11:10.833Z,17.70
2023-08-12T03:14:52.622Z,17.60
2023-08-12T03:18:34.412Z,17.60
2023-08-12T03:22:16.284Z,17.60
2023-08-12T03:25:58.153Z,17.50
2023-08-12T03:29:40.028Z,17.50
2023-08-12T03:33:21.857Z,17.50
2023-08-12T03:37:04.230Z,17.50
2023-08-12T03:40:46.108Z,17.50
2023-08-12T03:44:27.916Z,17.50
2023-08-12T03:48:10.608Z,17.50
2023-08-12T03:51:52.490Z,17.50
2023-08-12T03:55:34.822Z,17.40
2023-08-12T03:59:16.629Z,17.40
2023-08-12T04:02:58.522Z,17.40
2023-08-12T04:06:40.397Z,17.40
2023-08-12T04:10:22.146Z,17.40
2023-08-12T04:14:04.048Z,17.40
2023-08-12T04:17:45.872Z,17.30
2023-08-12T04:21:27.667Z,17.40
2023-08-12T04:25:09.643Z,17.30
2023-08-12T04:28:51.470Z,17.30
2023-08-12T04:32:33.294Z,17.30
2023-08-12T04:36:15.083Z,17.30
2023-08-12T04:39:56.878Z,17.20
2023-08-12T04:43:38.654Z,17.30
2023-08-12T04:47:20.473Z,17.20
2023-08-12T04:51:04.040Z,17.20
2023-08-12T04:54:45.840Z,17.20
2023-08-12T04:58:27.655Z,17.10
2023-08-12T05:02:09.495Z,17.10
2023-08-12T05:05:52.927Z,17.10
2023-08-12T05:09:34.959Z,17.10
2023-08-12T05:13:17.198Z,17.20
2023-08-12T05:16:58.947Z,17.10
2023-08-12T05:20:45.356Z,17.20
2023-08-12T05:24:28.565Z,17.20
2023-08-12T05:28:10.458Z,17.30
2023-08-12T05:31:52.298Z,17.40
2023-08-12T05:35:35.283Z,17.40
2023-08-12T05:39:17.084Z,17.40
2023-08-12T05:42:58.832Z,17.40
2023-08-12T05:46:40.734Z,17.50
2023-08-12T05:50:22.634Z,17.60
2023-08-12T05:54:04.630Z,17.60
2023-08-12T05:57:46.385Z,17.70
2023-08-12T06:01:28.185Z,17.70
2023-08-12T06:05:10.273Z,17.70
2023-08-12T06:08:52.117Z,17.80
2023-08-12T06:12:33.942Z,17.80
2023-08-12T06:16:15.830Z,17.90
2023-08-12T06:19:57.668Z,17.90
2023-08-12T06:23:39.535Z,17.90
2023-08-12T06:27:21.887Z,17.90
2023-08-12T06:31:03.702Z,17.90
2023-08-12T06:34:46.832Z,18.00
2023-08-12T06:38:28.648Z,18.00
2023-08-12T06:42:10.546Z,18.00
2023-08-12T06:45:52.597Z,18.10
2023-08-12T06:49:34.504Z,18.20
2023-08-12T06:53:16.349Z,18.20
2023-08-12T06:56:58.205Z,18.20
2023-08-12T07:00:40.151Z,18.30
2023-08-12T07:04:22.105Z,18.20
2023-08-12T07:08:04.139Z,18.20
2023-08-12T07:11:45.980Z,18.10
2023-08-12T07:15:27.758Z,18.10
2023-08-12T07:19:09.592Z,18.00
2023-08-12T07:22:51.593Z,17.90
2023-08-12T07:26:33.376Z,17.90
2023-08-12T07:30:15.215Z,17.90
2023-08-12T07:33:57.003Z,18.00
2023-08-12T07:37:38.806Z,18.10
2023-08-12T07:41:21.043Z,18.10
2023-08-12T07:45:02.872Z,18.20
2023-08-12T07:48:45.098Z,18.20
2023-08-12T07:52:26.850Z,18.30
2023-08-12T07:56:09.731Z,18.30
2023-08-12T07:59:52.473Z,18.30
2023-08-12T08:03:34.230Z,18.40
2023-08-12T08:07:17.643Z,18.40
2023-08-12T08:10:59.394Z,18.50
2023-08-12T08:14:41.226Z,18.60
2023-08-12T08:18:23.134Z,18.70
2023-08-12T08:22:05.107Z,18.80
2023-08-12T08:25:47.236Z,18.90
2023-08-12T08:29:29.088Z,19.00
2023-08-12T08:33:10.913Z,19.10
2023-08-12T08:36:52.946Z,19.20
2023-08-12T08:40:35.386Z,19.20
2023-08-12T08:44:18.339Z,19.10
2023-08-12T08:48:02.133Z,19.10
2023-08-12T08:51:44.565Z,19.10
2023-08-12T08:55:26.774Z,19.10
2023-08-12T08:59:08.684Z,19.10
2023-08-12T09:02:51.949Z,18.90
2023-08-12T09:06:34.997Z,18.80
2023-08-12T09:10:18.917Z,18.70
2023-08-12T09:14:00.697Z,18.60
2023-08-12T09:17:42.592Z,18.60
2023-08-12T09:21:24.884Z,18.70
2023-08-12T09:25:07.367Z,18.80
2023-08-12T09:28:50.151Z,18.80
2023-08-12T09:32:32.612Z,18.90
2023-08-12T09:36:14.562Z,19.10
2023-08-12T09:39:58.971Z,19.10
2023-08-12T09:43:44.227Z,19.10
2023-08-12T09:47:28.906Z,19.20
2023-08-12T09:51:11.919Z,19.30
2023-08-12T09:54:57.459Z,19.50
2023-08-12T09:58:44.168Z,19.50
2023-08-12T10:02:26.525Z,19.40
2023-08-12T10:06:09.438Z,19.40
2023-08-12T10:09:51.753Z,19.40
2023-08-12T10:13:34.064Z,19.40
2023-08-12T10:17:26.381Z,19.50
2023-08-12T10:21:19.328Z,19.60
2023-08-12T10:25:03.744Z,19.60
2023-08-12T10:28:45.504Z,19.60
2023-08-12T10:32:28.221Z,19.70
2023-08-12T10:36:10.771Z,19.90
2023-08-12T10:39:56.231Z,20.10
2023-08-12T10:43:56.753Z,20.20
2023-08-12T10:47:45.388Z,20.60
2023-08-12T10:51:47.437Z,20.70
2023-08-12T10:55:29.317Z,20.80
2023-08-12T10:59:46.407Z,20.90
2023-08-12T11:03:37.913Z,20.90
2023-08-12T11:07:22.501Z,20.90
2023-08-12T11:11:19.917Z,21.00
2023-08-12T11:15:03.539Z,21.10
2023-08-12T11:18:45.540Z,21.20
2023-08-12T11:22:27.579Z,21.10
2023-08-12T11:26:10.768Z,21.10
2023-08-12T11:29:52.737Z,21.10
2023-08-12T11:33:34.647Z,21.10
2023-08-12T11:37:16.798Z,21.10
2023-08-12T11:41:01.256Z,21.20
2023-08-12T11:44:43.206Z,21.20
2023-08-12T11:48:25.181Z,21.20
2023-08-12T11:52:09.999Z,21.30
2023-08-12T11:55:51.809Z,21.50
2023-08-12T11:59:33.642Z,21.70
2023-08-12T12:03:18.346Z,21.50
2023-08-12T12:07:01.080Z,21.30
2023-08-12T12:10:43.495Z,21.30
2023-08-12T12:14:25.862Z,21.30
2023-08-12T12:18:12.330Z,21.30
2023-08-12T12:21:54.778Z,21.40
2023-08-12T12:25:36.609Z,21.60
2023-08-12T12:29:18.586Z,21.90
2023-08-12T12:33:00.407Z,21.90
2023-08-12T12:36:42.469Z,21.90
2023-08-12T12:40:24.303Z,21.80
2023-08-12T12:44:06.331Z,21.70
2023-08-12T12:47:48.133Z,21.60
2023-08-12T12:51:30.001Z,21.80
2023-08-12T12:55:11.891Z,21.90
2023-08-12T12:58:53.692Z,22.20
2023-08-12T13:02:35.775Z,22.40
2023-08-12T13:06:17.619Z,22.40
2023-08-12T13:09:59.429Z,22.30
2023-08-12T13:13:41.172Z,22.10
2023-08-12T13:17:23.238Z,21.80
2023-08-12T13:21:05.167Z,21.40
2023-08-12T13:24:47.367Z,21.00
2023-08-12T13:28:29.593Z,20.70
2023-08-12T13:32:12.419Z,20.60
2023-08-12T13:35:55.001Z,20.70
2023-08-12T13:39:36.745Z,20.90
2023-08-12T13:43:18.519Z,21.20
2023-08-12T13:47:00.322Z,21.60
2023-08-12T13:50:42.478Z,22.00
2023-08-12T13:54:24.238Z,22.20
2023-08-12T13:58:06.096Z,22.10
2023-08-12T14:01:47.926Z,22.30
2023-08-12T14:05:30.459Z,22.80
2023-08-12T14:09:14.874Z,23.00
2023-08-12T14:12:56.693Z,22.70
2023-08-12T14:16:38.529Z,22.40
2023-08-12T14:20:20.436Z,22.10
2023-08-12T14:24:02.257Z,21.90
2023-08-12T14:27:44.071Z,21.50
2023-08-12T14:31:25.882Z,21.30
2023-08-12T14:35:08.314Z,21.20
2023-08-12T14:38:51.360Z,21.10
2023-08-12T14:42:33.159Z,21.10
2023-08-12T14:46:14.962Z,20.90
2023-08-12T14:49:57.580Z,20.80
2023-08-12T14:53:39.430Z,20.80
2023-08-12T14:57:21.311Z,21.00
2023-08-12T15:01:04.197Z,21.50
2023-08-12T15:04:47.777Z,22.20
2023-08-12T15:08:29.532Z,22.50
2023-08-12T15:12:11.338Z,22.80
2023-08-12T15:15:53.425Z,23.40
2023-08-12T15:19:35.230Z,24.10
2023-08-12T15:23:17.019Z,24.30
2023-08-12T15:26:59.052Z,23.90
2023-08-12T15:30:40.900Z,23.40
2023-08-12T15:34:23.972Z,22.80
2023-08-12T15:38:05.715Z,22.40
2023-08-12T15:41:47.602Z,22.10
2023-08-12T15:45:29.422Z,21.80
2023-08-12T15:49:14.233Z,21.60
2023-08-12T15:52:56.034Z,21.30
2023-08-12T15:56:38.307Z,20.90
2023-08-12T16:00:20.485Z,20.50
2023-08-12T16:04:02.454Z,20.40
2023-08-12T16:07:44.217Z,20.50
2023-08-12T16:11:26.165Z,20.70
2023-08-12T16:15:08.441Z,21.00
2023-08-12T16:18:50.371Z,21.40
2023-08-12T16:22:32.200Z,21.70
2023-08-12T16:26:13.993Z,21.90
2023-08-12T16:29:55.896Z,21.70
2023-08-12T16:33:37.678Z,21.50
2023-08-12T16:37:21.831Z,21.40
2023-08-12T16:41:04.833Z,21.20
2023-08-12T16:44:46.593Z,21.00
2023-08-12T16:48:28.352Z,20.80
2023-08-12T16:52:10.082Z,20.70
2023-08-12T16:55:51.871Z,20.80
2023-08-12T16:59:33.629Z,21.20
2023-08-12T17:03:15.472Z,21.50
2023-08-12T17:06:57.544Z,21.50
2023-08-12T17:10:40.267Z,22.00
2023-08-12T17:14:22.573Z,22.60
2023-08-12T17:18:04.644Z,22.50
2023-08-12T17:21:46.609Z,22.20
2023-08-12T17:25:28.428Z,21.90
2023-08-12T17:29:10.412Z,21.70
2023-08-12T17:32:52.204Z,21.50
2023-08-12T17:36:34.169Z,21.50
2023-08-12T17:40:17.353Z,21.40
2023-08-12T17:43:59.151Z,21.40
2023-08-12T17:47:41.039Z,21.10
2023-08-12T17:51:22.879Z,20.90
2023-08-12T17:55:05.016Z,20.80
2023-08-12T17:58:47.023Z,20.70
2023-08-12T18:02:28.839Z,20.50
2023-08-12T18:06:10.673Z,20.40
2023-08-12T18:09:52.477Z,20.40
2023-08-12T18:13:34.419Z,20.20
2023-08-12T18:17:16.302Z,20.10
2023-08-12T18:20:58.580Z,20.00
2023-08-12T18:24:40.406Z,19.90
2023-08-12T18:28:22.362Z,19.90
2023-08-12T18:32:04.279Z,19.80
2023-08-12T18:35:46.066Z,19.80
2023-08-12T18:39:27.904Z,19.70
2023-08-12T18:43:09.654Z,19.70
2023-08-12T18:46:51.574Z,19.70
2023-08-12T18:50:33.391Z,19.70
2023-08-12T18:54:15.148Z,19.60
2023-08-12T18:57:56.886Z,19.60
2023-08-12T19:01:38.715Z,19.50
2023-08-12T19:05:20.555Z,19.40
2023-08-12T19:09:02.340Z,19.40
2023-08-12T19:12:44.113Z,19.40
2023-08-12T19:16:25.973Z,19.40
2023-08-12T19:20:09.338Z,19.40
2023-08-12T19:23:51.746Z,19.40
2023-08-12T19:27:33.771Z,19.30
2023-08-12T19:31:16.215Z,19.30
2023-08-12T19:34:58.070Z,19.20
2023-08-12T19:38:39.905Z,19.20
2023-08-12T19:42:21.752Z,19.20
2023-08-12T19:46:03.753Z,19.20
2023-08-12T19:49:45.543Z,19.20
2023-08-12T19:53:27.375Z,19.20
2023-08-12T19:57:09.224Z,19.10
2023-08-12T20:00:51.137Z,19.10
2023-08-12T20:04:33.161Z,19.00
2023-08-12T20:08:14.937Z,19.00
2023-08-12T20:11:56.765Z,18.90
2023-08-12T20:15:38.642Z,18.80
2023-08-12T20:19:20.487Z,18.70
2023-08-12T20:23:06.410Z,18.60
2023-08-12T20:26:48.579Z,18.50
2023-08-12T20:30:30.551Z,18.50
2023-08-12T20:34:12.328Z,18.40
2023-08-12T20:37:54.087Z,18.40
2023-08-12T20:41:35.831Z,18.40
2023-08-12T20:45:17.868Z,18.40
2023-08-12T20:48:59.652Z,18.40
2023-08-12T20:52:41.455Z,18.40
2023-08-12T20:56:23.239Z,18.40
2023-08-12T21:00:06.872Z,18.40
2023-08-12T21:03:48.747Z,18.40
2023-08-12T21:07:30.611Z,18.40
2023-08-12T21:11:12.679Z,18.40
2023-08-12T21:14:54.466Z,18.30
2023-08-12T21:18:36.274Z,18.30
2023-08-12T21:22:18.027Z,18.20
2023-08-12T21:25:59.816Z,18.20
2023-08-12T21:29:41.561Z,18.10
2023-08-12T21:33:23.413Z,18.10
2023-08-12T21:37:05.236Z,18.10
2023-08-12T21:40:47.042Z,18.10
2023-08-12T21:44:29.304Z,18.10
2023-08-12T21:48:11.084Z,18.10
2023-08-12T21:51:52.860Z,18.20
2023-08-12T21:55:34.659Z,18.10
2023-08-12T21:59:16.540Z,18.10
2023-08-12T22:02:58.407Z,18.00
2023-08-12T22:06:40.207Z,18.00
2023-08-12T22:10:22.039Z,17.90
2023-08-12T22:14:03.888Z,17.90
2023-08-12T22:17:45.700Z,17.90
2023-08-12T22:21:28.229Z,17.90
2023-08-12T22:25:10.157Z,17.80
2023-08-12T22:28:51.957Z,17.80
2023-08-12T22:32:33.795Z,17.80
2023-08-12T22:36:15.647Z,17.70
2023-08-12T22:39:57.509Z,17.70
2023-08-12T22:43:39.278Z,17.60
2023-08-12T22:47:21.807Z,17.60
2023-08-12T22:51:03.643Z,17.60
2023-08-12T22:54:45.389Z,17.60
2023-08-12T22:58:27.155Z,17.60
2023-08-12T23:02:08.994Z,17.60
2023-08-12T23:05:50.795Z,17.50
2023-08-12T23:09:32.543Z,17.60
2023-08-12T23:13:14.316Z,17.60
2023-08-12T23:16:56.660Z,17.60
2023-08-12T23:20:38.412Z,17.60
2023-08-12T23:24:20.400Z,17.50
2023-08-12T23:28:02.212Z,17.50
2023-08-12T23:31:44.051Z,17.60
2023-08-12T23:35:25.782Z,17.50
2023-08-12T23:39:07.611Z,17.60
2023-08-12T23:42:49.502Z,17.60
2023-08-12T23:46:31.399Z,17.60
2023-08-12T23:50:13.399Z,17.60
2023-08-12T23:53:55.253Z,17.60
2023-08-12T23:57:37.142Z,17.50
